Capetan Panais — SW3297 — position and weather

sailwx.info

Track history (hours):
 
Tides and Currents Weather Stations Pressure Air Temp Water Temp Dewpoint Dewpoint Depression Visibility Wind Speed Wind Dir Waves Ship Positions

Capetan Panais

Last reported at 2017-Oct-19 01:37 UTC. Time now 2017-Oct-19 14:57 UTC.
Position N 40°24' E 023°54'.

Length 24 m; draft 2.5 m.

Type: Fishing. MMSI: 237884000.

Date/timePositionNaut miles runAvg speedWind from/ knotsBaromVisibWave heightAir tempDewpointWater temp
2017-Oct-19 01:37N 40°24' E 023°54'0 0.9
2017-Oct-19 01:29N 40°24' E 023°54'2 3.7
2017-Oct-19 01:01N 40°26' E 023°54'1 0.4
2017-Oct-18 21:27N 40°27' E 023°55'3 7.2
2017-Oct-18 21:00N 40°24' E 023°54'0 0.0
2017-Oct-18 20:28N 40°24' E 023°54'1 1.9
2017-Oct-18 20:00N 40°25' E 023°54'2 3.5
2017-Oct-18 19:26N 40°27' E 023°55'2 0.2
2017-Oct-18 03:57N 40°24' E 023°53'4 1.0
2017-Oct-18 00:24N 40°28' E 023°56'0 0.1
2017-Oct-17 23:17N 40°28' E 023°56'0 0.0
2017-Oct-17 23:00N 40°28' E 023°56'0 0.1
2017-Oct-17 22:30N 40°28' E 023°56'1 1.9
2017-Oct-17 22:00N 40°27' E 023°55'3 6.7
2017-Oct-17 21:30N 40°24' E 023°54'0 0.0
2017-Oct-17 21:00N 40°24' E 023°54'0 0.3
2017-Oct-17 20:30N 40°24' E 023°53'4 8.0
2017-Oct-17 20:00N 40°28' E 023°55'11 0.4
2017-Oct-16 16:16N 40°37' E 024°02'2 0.1
2017-Oct-15 19:08N 40°37' E 023°60'2 2.6
2017-Oct-15 18:13N 40°37' E 024°03'0 0.1
2017-Oct-15 16:37N 40°37' E 024°03'1 5.0
2017-Oct-15 16:30N 40°36' E 024°03'2 3.2
2017-Oct-15 15:48N 40°37' E 024°00'1 0.0
2017-Oct-13 19:18N 40°38' E 024°00'2 7.8
2017-Oct-13 19:00N 40°37' E 024°03'0 0.4
2017-Oct-13 18:02N 40°37' E 024°03'0 2.4
2017-Oct-13 17:59N 40°37' E 024°03'0 0.4
2017-Oct-13 16:58N 40°37' E 024°03'1 2.8
2017-Oct-13 16:31N 40°37' E 024°05'4 0.2
2017-Oct-12 19:48N 40°39' E 024°00'4 9.5
2017-Oct-12 19:25N 40°39' E 024°05'1 2.4
2017-Oct-12 18:48N 40°40' E 024°07'0 0.4
2017-Oct-12 18:31N 40°39' E 024°07'1 0.4
2017-Oct-12 17:02N 40°39' E 024°08'0 1.2
2017-Oct-12 17:00N 40°39' E 024°08'3 6.2
2017-Oct-12 16:30N 40°36' E 024°07'6 9.4
2017-Oct-12 15:54N 40°31' E 024°02'4 9.2
2017-Oct-12 15:28N 40°28' E 023°59'11 0.5
2017-Oct-11 18:28N 40°35' E 024°10'0 0.0
2017-Oct-11 18:00N 40°35' E 024°10'0 0.5
2017-Oct-11 17:22N 40°36' E 024°10'1 2.2
2017-Oct-11 16:58N 40°36' E 024°11'3 0.2
2017-Oct-10 23:59N 40°37' E 024°15'0 0.8
2017-Oct-10 23:29N 40°37' E 024°15'3 6.4
2017-Oct-10 23:00N 40°38' E 024°19'4 8.4
2017-Oct-10 22:30N 40°43' E 024°20'5 9.1
2017-Oct-10 22:00N 40°47' E 024°21'4 7.7
2017-Oct-10 21:30N 40°51' E 024°19'3 5.7
2017-Oct-10 21:00N 40°48' E 024°21'5 9.6
2017-Oct-10 20:30N 40°44' E 024°20'5 9.6
2017-Oct-10 20:00N 40°39' E 024°19'0 0.4
2017-Oct-10 19:30N 40°39' E 024°19'0 0.5
2017-Oct-10 19:00N 40°39' E 024°19'0 0.5
2017-Oct-10 18:30N 40°38' E 024°19'0 0.6
2017-Oct-10 18:00N 40°38' E 024°19'0 0.0
2017-Oct-10 17:30N 40°38' E 024°19'0 0.2
2017-Oct-10 17:00N 40°38' E 024°19'1 2.5
2017-Oct-10 16:29N 40°39' E 024°20'4 8.1
2017-Oct-10 16:00N 40°43' E 024°21'4 8.7
2017-Oct-10 15:30N 40°47' E 024°21'4 8.0
2017-Oct-10 15:00N 40°51' E 024°19'0 0.0
2017-Oct-09 21:11N 40°51' E 024°19'0 0.6
2017-Oct-09 21:00N 40°51' E 024°19'0 0.1
2017-Oct-09 20:30N 40°51' E 024°19'4 7.6
2017-Oct-09 20:01N 40°47' E 024°20'5 9.5
2017-Oct-09 19:30N 40°43' E 024°17'0 1.0
2017-Oct-09 19:00N 40°42' E 024°17'0 0.5
2017-Oct-09 18:31N 40°42' E 024°17'1 0.4
2017-Oct-09 17:10N 40°42' E 024°17'0 0.0
2017-Oct-09 17:00N 40°42' E 024°17'0 0.0
2017-Oct-09 16:28N 40°42' E 024°17'1 2.7
2017-Oct-09 16:01N 40°43' E 024°17'4 8.2
2017-Oct-09 15:31N 40°47' E 024°20'4 7.5
2017-Oct-09 14:58N 40°51' E 024°19'  
Track history (hours):
 
Tides and Currents Weather Stations Pressure Air Temp Water Temp Dewpoint Dewpoint Depression Visibility Wind Speed Wind Dir Waves Ship Positions

Capetan Panais

Last reported at 2017-Oct-19 01:37 UTC. Time now 2017-Oct-19 14:57 UTC.
Position N 40°24' E 023°54'.

Length 24 m; draft 2.5 m.

Type: Fishing. MMSI: 237884000.

Date/timePositionNaut miles runAvg speedWind from/ knotsBaromVisibWave heightAir tempDewpointWater temp
2017-Oct-19 01:37N 40°24' E 023°54'0 0.9
2017-Oct-19 01:29N 40°24' E 023°54'2 3.7
2017-Oct-19 01:01N 40°26' E 023°54'1 0.4
2017-Oct-18 21:27N 40°27' E 023°55'3 7.2
2017-Oct-18 21:00N 40°24' E 023°54'0 0.0
2017-Oct-18 20:28N 40°24' E 023°54'1 1.9
2017-Oct-18 20:00N 40°25' E 023°54'2 3.5
2017-Oct-18 19:26N 40°27' E 023°55'2 0.2
2017-Oct-18 03:57N 40°24' E 023°53'4 1.0
2017-Oct-18 00:24N 40°28' E 023°56'0 0.1
2017-Oct-17 23:17N 40°28' E 023°56'0 0.0
2017-Oct-17 23:00N 40°28' E 023°56'0 0.1
2017-Oct-17 22:30N 40°28' E 023°56'1 1.9
2017-Oct-17 22:00N 40°27' E 023°55'3 6.7
2017-Oct-17 21:30N 40°24' E 023°54'0 0.0
2017-Oct-17 21:00N 40°24' E 023°54'0 0.3
2017-Oct-17 20:30N 40°24' E 023°53'4 8.0
2017-Oct-17 20:00N 40°28' E 023°55'11 0.4
2017-Oct-16 16:16N 40°37' E 024°02'2 0.1
2017-Oct-15 19:08N 40°37' E 023°60'2 2.6
2017-Oct-15 18:13N 40°37' E 024°03'0 0.1
2017-Oct-15 16:37N 40°37' E 024°03'1 5.0
2017-Oct-15 16:30N 40°36' E 024°03'2 3.2
2017-Oct-15 15:48N 40°37' E 024°00'1 0.0
2017-Oct-13 19:18N 40°38' E 024°00'2 7.8
2017-Oct-13 19:00N 40°37' E 024°03'0 0.4
2017-Oct-13 18:02N 40°37' E 024°03'0 2.4
2017-Oct-13 17:59N 40°37' E 024°03'0 0.4
2017-Oct-13 16:58N 40°37' E 024°03'1 2.8
2017-Oct-13 16:31N 40°37' E 024°05'4 0.2
2017-Oct-12 19:48N 40°39' E 024°00'4 9.5
2017-Oct-12 19:25N 40°39' E 024°05'1 2.4
2017-Oct-12 18:48N 40°40' E 024°07'0 0.4
2017-Oct-12 18:31N 40°39' E 024°07'1 0.4
2017-Oct-12 17:02N 40°39' E 024°08'0 1.2
2017-Oct-12 17:00N 40°39' E 024°08'3 6.2
2017-Oct-12 16:30N 40°36' E 024°07'6 9.4
2017-Oct-12 15:54N 40°31' E 024°02'4 9.2
2017-Oct-12 15:28N 40°28' E 023°59'11 0.5
2017-Oct-11 18:28N 40°35' E 024°10'0 0.0
2017-Oct-11 18:00N 40°35' E 024°10'0 0.5
2017-Oct-11 17:22N 40°36' E 024°10'1 2.2
2017-Oct-11 16:58N 40°36' E 024°11'3 0.2
2017-Oct-10 23:59N 40°37' E 024°15'0 0.8
2017-Oct-10 23:29N 40°37' E 024°15'3 6.4
2017-Oct-10 23:00N 40°38' E 024°19'4 8.4
2017-Oct-10 22:30N 40°43' E 024°20'5 9.1
2017-Oct-10 22:00N 40°47' E 024°21'4 7.7
2017-Oct-10 21:30N 40°51' E 024°19'3 5.7
2017-Oct-10 21:00N 40°48' E 024°21'5 9.6
2017-Oct-10 20:30N 40°44' E 024°20'5 9.6
2017-Oct-10 20:00N 40°39' E 024°19'0 0.4
2017-Oct-10 19:30N 40°39' E 024°19'0 0.5
2017-Oct-10 19:00N 40°39' E 024°19'0 0.5
2017-Oct-10 18:30N 40°38' E 024°19'0 0.6
2017-Oct-10 18:00N 40°38' E 024°19'0 0.0
2017-Oct-10 17:30N 40°38' E 024°19'0 0.2
2017-Oct-10 17:00N 40°38' E 024°19'1 2.5
2017-Oct-10 16:29N 40°39' E 024°20'4 8.1
2017-Oct-10 16:00N 40°43' E 024°21'4 8.7
2017-Oct-10 15:30N 40°47' E 024°21'4 8.0
2017-Oct-10 15:00N 40°51' E 024°19'0 0.0
2017-Oct-09 21:11N 40°51' E 024°19'0 0.6
2017-Oct-09 21:00N 40°51' E 024°19'0 0.1
2017-Oct-09 20:30N 40°51' E 024°19'4 7.6
2017-Oct-09 20:01N 40°47' E 024°20'5 9.5
2017-Oct-09 19:30N 40°43' E 024°17'0 1.0
2017-Oct-09 19:00N 40°42' E 024°17'0 0.5
2017-Oct-09 18:31N 40°42' E 024°17'1 0.4
2017-Oct-09 17:10N 40°42' E 024°17'0 0.0
2017-Oct-09 17:00N 40°42' E 024°17'0 0.0
2017-Oct-09 16:28N 40°42' E 024°17'1 2.7
2017-Oct-09 16:01N 40°43' E 024°17'4 8.2
2017-Oct-09 15:31N 40°47' E 024°20'4 7.5
2017-Oct-09 14:58N 40°51' E 024°19'  

Dump ship's entire track history